Time;durP1;ratioP1;P1;durP2;ratioP2;P2;SDS_P1;SDS_P2;PMS_P1;PMS_P2;Temp;Humidity;BMP_temperature;BMP_pressure;BME280_temperature;BME280_humidity;BME280_pressure;Samples;Min_cycle;Max_cycle;Signal;HPM_P1;HPM_P2
2023/04/22 00:00:37;;;;;;;0.20;0.20;;;;;;;19.20;43.23;100473.78;5094326;28;20390;-46
2023/04/22 00:03:03;;;;;;;0.20;0.20;;;;;;;19.20;43.18;100479.31;5078557;28;20058;-48
2023/04/22 00:05:29;;;;;;;0.20;0.20;;;;;;;19.20;43.07;100467.44;5090867;28;20101;-47
2023/04/22 00:07:55;;;;;;;0.20;0.20;;;;;;;19.18;43.18;100470.50;5093888;28;20047;-46
2023/04/22 00:10:20;;;;;;;0.30;0.30;;;;;;;19.20;43.17;100472.97;5094351;28;20043;-45
2023/04/22 00:12:46;;;;;;;0.20;0.20;;;;;;;19.19;43.30;100466.63;5093869;28;20424;-46
2023/04/22 00:15:12;;;;;;;0.30;0.30;;;;;;;19.19;43.20;100465.81;5093837;28;20051;-47
2023/04/22 00:17:39;;;;;;;0.20;0.20;;;;;;;19.19;42.92;100465.81;5093828;28;20043;-47
2023/04/22 00:20:06;;;;;;;0.20;0.20;;;;;;;19.19;43.27;100465.81;5075610;28;20043;-46
2023/04/22 00:22:32;;;;;;;0.20;0.20;;;;;;;19.19;43.52;100457.53;5093898;28;20069;-45
2023/04/22 00:24:58;;;;;;;0.20;0.20;;;;;;;19.18;43.36;100464.16;5093658;28;20093;-47
2023/04/22 00:27:23;;;;;;;0.28;0.28;;;;;;;19.19;43.13;100460.28;5093290;28;20036;-46
2023/04/22 00:29:49;;;;;;;0.38;0.38;;;;;;;19.19;43.36;100461.09;5076245;28;20457;-46
2023/04/22 00:32:15;;;;;;;0.30;0.30;;;;;;;19.17;43.17;100457.81;5097863;28;20049;-47
2023/04/22 00:34:40;;;;;;;0.30;0.30;;;;;;;19.19;43.21;100463.03;5097140;28;20637;-46
2023/04/22 00:37:06;;;;;;;0.30;0.30;;;;;;;19.18;43.24;100464.97;5096978;28;20052;-47
2023/04/22 00:39:32;;;;;;;0.40;0.40;;;;;;;19.18;43.34;100459.47;5096873;28;20217;-47
2023/04/22 00:41:59;;;;;;;0.20;0.20;;;;;;;19.18;43.36;100467.75;5096618;28;20539;-46
2023/04/22 00:44:25;;;;;;;0.25;0.25;;;;;;;19.18;43.33;100461.41;5079086;28;20043;-45
2023/04/22 00:46:50;;;;;;;0.20;0.20;;;;;;;19.18;43.15;100464.97;5096478;28;20476;-46
2023/04/22 00:49:17;;;;;;;0.20;0.20;;;;;;;19.18;43.17;100458.66;5097236;28;20043;-46
2023/04/22 00:51:42;;;;;;;0.30;0.30;;;;;;;19.18;43.34;100451.19;5097423;28;20047;-46
2023/04/22 00:54:08;;;;;;;0.30;0.30;;;;;;;19.18;43.09;100458.66;5097712;28;20070;-45
2023/04/22 00:56:35;;;;;;;0.28;0.28;;;;;;;19.18;43.12;100453.13;5097034;28;20063;-46
2023/04/22 00:59:00;;;;;;;0.30;0.30;;;;;;;19.18;43.43;100453.94;5078316;28;20071;-47
2023/04/22 01:01:27;;;;;;;0.30;0.30;;;;;;;19.18;43.42;100451.19;5097151;28;20048;-45
2023/04/22 01:03:53;;;;;;;0.20;0.20;;;;;;;19.17;43.11;100452.31;5097150;28;20506;-46
2023/04/22 01:06:19;;;;;;;0.30;0.30;;;;;;;19.17;43.25;100448.69;5096861;28;20119;-48
2023/04/22 01:08:45;;;;;;;0.30;0.30;;;;;;;19.17;43.45;100452.31;5096702;28;20044;-45
2023/04/22 01:11:11;;;;;;;0.28;0.28;;;;;;;19.17;43.06;100445.94;5096536;28;20529;-46
2023/04/22 01:13:37;;;;;;;0.20;0.20;;;;;;;19.17;43.22;100446.78;5097130;28;20047;-49
2023/04/22 01:16:04;;;;;;;0.25;0.25;;;;;;;19.18;43.17;100442.09;5096552;28;20354;-45
2023/04/22 01:18:31;;;;;;;0.30;0.30;;;;;;;19.17;43.30;100440.41;5096647;28;20043;-47
2023/04/22 01:20:56;;;;;;;0.20;0.20;;;;;;;19.17;43.36;100438.50;5096370;28;20146;-47
2023/04/22 01:23:22;;;;;;;0.20;0.20;;;;;;;19.17;43.12;100440.41;5096729;28;20491;-46
2023/04/22 01:25:48;;;;;;;0.30;0.30;;;;;;;19.17;43.30;100435.75;5096398;28;20129;-49
2023/04/22 01:28:15;;;;;;;0.20;0.20;;;;;;;19.16;43.06;100445.13;5078147;28;20040;-46
2023/04/22 01:30:41;;;;;;;0.20;0.20;;;;;;;19.17;43.55;100445.94;5078227;28;20056;-45
2023/04/22 01:33:08;;;;;;;0.20;0.20;;;;;;;19.16;43.18;100439.59;5095894;28;20051;-45
2023/04/22 01:35:35;;;;;;;0.30;0.30;;;;;;;19.17;43.20;100435.75;5096462;28;20105;-48
2023/04/22 01:38:03;;;;;;;0.20;0.20;;;;;;;19.16;43.10;100439.59;5077963;28;20051;-45
2023/04/22 01:40:30;;;;;;;0.20;0.20;;;;;;;19.16;43.03;100445.13;5077742;28;20048;-46
2023/04/22 01:42:57;;;;;;;0.20;0.20;;;;;;;19.16;43.32;100439.59;5095586;28;20043;-46
2023/04/22 01:45:23;;;;;;;0.20;0.20;;;;;;;19.16;43.31;100442.34;5094187;28;20051;-45
2023/04/22 01:47:49;;;;;;;0.30;0.30;;;;;;;19.16;43.13;100439.59;5095547;28;20122;-48
2023/04/22 01:50:15;;;;;;;0.30;0.30;;;;;;;19.16;43.05;100447.88;5096123;28;20195;-46
2023/04/22 01:52:40;;;;;;;0.20;0.20;;;;;;;19.17;43.34;100452.31;5096157;28;20336;-48
2023/04/22 01:55:07;;;;;;;0.20;0.20;;;;;;;19.16;43.18;100442.34;5095691;28;20559;-45
2023/04/22 01:57:32;;;;;;;0.30;0.30;;;;;;;19.16;43.04;100445.13;5095924;28;20059;-45
2023/04/22 01:59:58;;;;;;;0.20;0.20;;;;;;;19.17;43.43;100448.69;5095373;28;20051;-48
2023/04/22 02:02:24;;;;;;;0.30;0.30;;;;;;;19.15;43.28;100443.47;5095417;28;20040;-47
2023/04/22 02:04:50;;;;;;;0.20;0.20;;;;;;;19.17;43.20;100451.44;5096057;28;20035;-47
2023/04/22 02:07:15;;;;;;;0.30;0.30;;;;;;;19.16;43.33;100452.56;5096017;28;20063;-47
2023/04/22 02:09:41;;;;;;;0.20;0.20;;;;;;;19.16;43.38;100453.41;5095610;28;20439;-46
2023/04/22 02:12:07;;;;;;;0.20;0.20;;;;;;;19.14;43.05;100447.34;5095861;28;20158;-46
2023/04/22 02:14:33;;;;;;;0.30;0.30;;;;;;;19.15;43.24;100445.41;5095736;28;20047;-47
2023/04/22 02:17:01;;;;;;;0.38;0.38;;;;;;;19.16;43.28;100441.53;5095395;28;20481;-47
2023/04/22 02:19:27;;;;;;;0.20;0.20;;;;;;;19.16;43.15;100442.34;5095891;28;20529;-45
2023/04/22 02:21:53;;;;;;;0.40;0.40;;;;;;;19.16;43.26;100438.78;5076804;28;20416;-45
2023/04/22 02:24:18;;;;;;;0.30;0.30;;;;;;;19.15;43.40;100439.91;5077131;28;20552;-50
2023/04/22 02:26:46;;;;;;;0.30;0.30;;;;;;;19.15;43.20;100432.44;5095792;28;20250;-46
2023/04/22 02:29:12;;;;;;;0.30;0.30;;;;;;;19.16;43.18;100441.53;5095548;28;20542;-48
2023/04/22 02:31:37;;;;;;;0.20;0.20;;;;;;;19.15;43.37;100431.63;5095531;28;20562;-48
2023/04/22 02:34:03;;;;;;;0.30;0.30;;;;;;;19.15;43.11;100439.91;5095718;28;20074;-45
2023/04/22 02:36:30;;;;;;;0.30;0.30;;;;;;;19.15;43.13;100440.72;5095633;28;20036;-47
2023/04/22 02:38:56;;;;;;;0.30;0.30;;;;;;;19.15;43.28;100431.63;5095525;28;20040;-45
2023/04/22 02:41:22;;;;;;;0.20;0.20;;;;;;;19.15;43.25;100420.56;5095546;28;20411;-48
2023/04/22 02:43:48;;;;;;;0.20;0.20;;;;;;;19.14;42.95;100422.53;5076608;28;20093;-45
2023/04/22 02:46:15;;;;;;;0.30;0.30;;;;;;;19.15;43.46;100415.06;5095626;28;20048;-46
2023/04/22 02:48:41;;;;;;;0.20;0.20;;;;;;;19.14;43.07;100417.00;5096246;28;20567;-48
2023/04/22 02:51:07;;;;;;;0.20;0.20;;;;;;;19.15;43.21;100413.13;5095059;28;20503;-46
2023/04/22 02:53:33;;;;;;;0.20;0.20;;;;;;;19.15;43.18;100406.78;5095202;28;20062;-47
2023/04/22 02:55:59;;;;;;;0.20;0.20;;;;;;;19.14;43.22;100417.00;5088739;28;20096;-46
2023/04/22 02:58:25;;;;;;;0.20;0.20;;;;;;;19.14;43.16;100416.19;5073800;28;20516;-47
2023/04/22 03:00:51;;;;;;;0.20;0.20;;;;;;;19.14;43.11;100405.97;5075313;28;20584;-46
2023/04/22 03:03:17;;;;;;;0.20;0.20;;;;;;;19.14;43.30;100402.38;5074977;28;20060;-45
2023/04/22 03:05:43;;;;;;;0.28;0.28;;;;;;;19.15;43.41;100401.25;5081644;28;20054;-45
2023/04/22 03:08:09;;;;;;;0.20;0.20;;;;;;;19.14;43.39;100389.41;5095663;28;20055;-46
2023/04/22 03:10:35;;;;;;;0.30;0.30;;;;;;;19.14;43.28;100388.56;5095807;28;20091;-48
2023/04/22 03:13:00;;;;;;;0.30;0.30;;;;;;;19.14;43.21;100388.56;5095097;28;20044;-47
2023/04/22 03:15:26;;;;;;;0.30;0.30;;;;;;;19.14;43.12;100394.09;5095364;28;20411;-45
2023/04/22 03:17:51;;;;;;;0.20;0.20;;;;;;;19.13;43.11;100390.53;5095123;28;20096;-46
2023/04/22 03:20:17;;;;;;;0.30;0.30;;;;;;;19.14;43.26;100391.34;5095455;28;20047;-46
2023/04/22 03:22:43;;;;;;;0.25;0.25;;;;;;;19.13;43.09;100386.91;5095132;28;20128;-45
2023/04/22 03:25:09;;;;;;;0.20;0.20;;;;;;;19.13;43.12;100386.91;5094793;28;20557;-45
2023/04/22 03:27:35;;;;;;;0.25;0.25;;;;;;;19.14;43.24;100381.13;5076470;28;20098;-47
2023/04/22 03:30:01;;;;;;;0.30;0.30;;;;;;;19.14;43.46;100374.78;5095449;28;20093;-48
2023/04/22 03:32:27;;;;;;;0.20;0.20;;;;;;;19.14;43.03;100380.28;5094500;28;20139;-46
2023/04/22 03:34:52;;;;;;;0.35;0.35;;;;;;;19.13;43.19;100376.72;5094518;28;20055;-47
2023/04/22 03:37:18;;;;;;;0.30;0.30;;;;;;;19.13;43.13;100373.97;5094944;28;20528;-46
2023/04/22 03:39:44;;;;;;;0.20;0.20;;;;;;;19.13;43.17;100362.06;5076327;28;20051;-47
2023/04/22 03:42:10;;;;;;;0.30;0.30;;;;;;;19.13;43.09;100357.41;5094859;28;20039;-45
2023/04/22 03:44:35;;;;;;;0.20;0.20;;;;;;;19.13;43.25;100356.53;5076619;28;20094;-48
2023/04/22 03:47:01;;;;;;;0.20;0.20;;;;;;;19.15;43.22;100354.34;5093747;28;20040;-46
2023/04/22 03:49:27;;;;;;;0.30;0.30;;;;;;;19.13;43.11;100359.31;5094412;28;20047;-47
2023/04/22 03:51:53;;;;;;;0.20;0.20;;;;;;;19.12;43.35;100369.53;5094757;28;20092;-48
2023/04/22 03:54:18;;;;;;;0.20;0.20;;;;;;;19.13;43.17;100362.06;5094372;28;20146;-45
2023/04/22 03:56:44;;;;;;;0.20;0.20;;;;;;;19.13;43.15;100370.34;5094259;28;20050;-45
2023/04/22 03:59:10;;;;;;;0.38;0.30;;;;;;;19.13;43.16;100371.19;5095304;28;20046;-48
2023/04/22 04:01:35;;;;;;;0.30;0.30;;;;;;;19.12;43.06;100365.94;5114855;28;20389;-45
2023/04/22 04:04:01;;;;;;;0.20;0.20;;;;;;;19.13;43.17;100360.16;5114713;27;20503;-47
2023/04/22 04:06:28;;;;;;;0.20;0.20;;;;;;;19.12;43.31;100346.63;5104765;28;20048;-45
2023/04/22 04:08:53;;;;;;;0.20;0.20;;;;;;;19.13;43.07;100348.25;5097507;28;20057;-44
2023/04/22 04:11:19;;;;;;;0.20;0.20;;;;;;;19.13;43.21;100340.84;5098383;28;20480;-45
2023/04/22 04:13:45;;;;;;;0.20;0.20;;;;;;;19.13;43.26;100338.06;5098127;28;20226;-48
2023/04/22 04:16:10;;;;;;;0.20;0.20;;;;;;;19.12;43.41;100333.66;5097567;28;20043;-45
2023/04/22 04:18:37;;;;;;;0.20;0.20;;;;;;;19.12;43.14;100328.13;5097894;28;20047;-47
2023/04/22 04:21:03;;;;;;;0.30;0.30;;;;;;;19.12;43.14;100336.41;5079915;28;20104;-47
2023/04/22 04:23:28;;;;;;;0.20;0.20;;;;;;;19.12;43.35;100330.88;5097469;28;20043;-44
2023/04/22 04:25:54;;;;;;;0.60;0.55;;;;;;;19.12;43.34;100336.41;5097575;28;20048;-45
2023/04/22 04:28:20;;;;;;;0.20;0.20;;;;;;;19.12;43.42;100330.06;5097598;28;20048;-48
2023/04/22 04:30:46;;;;;;;0.30;0.30;;;;;;;19.13;43.04;100339.97;5097612;28;20055;-46
2023/04/22 04:33:15;;;;;;;0.20;0.20;;;;;;;19.13;43.06;100345.50;5098134;28;20052;-45
2023/04/22 04:35:42;;;;;;;0.20;0.20;;;;;;;19.12;42.98;100346.63;5097226;28;20557;-47
2023/04/22 04:38:07;;;;;;;0.20;0.20;;;;;;;19.12;43.19;100338.34;5097689;28;20439;-49
2023/04/22 04:40:34;;;;;;;0.20;0.20;;;;;;;19.12;43.24;100330.06;5079511;28;20277;-45
2023/04/22 04:43:01;;;;;;;0.20;0.20;;;;;;;19.11;43.44;100334.78;5079209;28;20461;-47
2023/04/22 04:45:27;;;;;;;0.30;0.30;;;;;;;19.11;43.14;100332.00;5097167;28;20478;-48
2023/04/22 04:47:53;;;;;;;0.30;0.30;;;;;;;19.12;43.41;100330.06;5078531;28;20059;-45
2023/04/22 04:50:19;;;;;;;0.20;0.20;;;;;;;19.12;43.27;100333.66;5096658;28;20075;-47
2023/04/22 04:52:47;;;;;;;0.30;0.30;;;;;;;19.11;43.33;100326.50;5095562;28;20510;-47
2023/04/22 04:55:14;;;;;;;0.20;0.20;;;;;;;19.12;43.46;100321.78;5079508;28;20086;-47
2023/04/22 04:57:40;;;;;;;0.20;0.20;;;;;;;19.11;43.50;100312.69;5096384;28;20071;-46
2023/04/22 05:00:07;;;;;;;0.28;0.28;;;;;;;19.12;43.20;100328.13;5117276;28;20045;-49
2023/04/22 05:02:32;;;;;;;0.30;0.30;;;;;;;19.12;43.43;100319.03;5117627;28;20039;-45
2023/04/22 05:04:58;;;;;;;0.20;0.20;;;;;;;19.10;43.39;100308.28;5116553;28;20081;-48
2023/04/22 05:07:24;;;;;;;0.20;0.20;;;;;;;19.10;43.24;100305.53;5096834;28;20536;-46
2023/04/22 05:09:50;;;;;;;0.20;0.20;;;;;;;19.11;43.17;100303.59;5096661;28;20044;-45
2023/04/22 05:12:15;;;;;;;0.30;0.30;;;;;;;19.10;43.38;100302.78;5096996;28;20182;-46
2023/04/22 05:14:41;;;;;;;0.20;0.20;;;;;;;19.11;43.24;100298.06;5096959;28;20055;-48
2023/04/22 05:17:07;;;;;;;0.30;0.30;;;;;;;19.11;43.33;100303.59;5096188;28;20044;-46
2023/04/22 05:19:33;;;;;;;0.20;0.20;;;;;;;19.11;43.52;100309.13;5096730;28;20306;-45
2023/04/22 05:21:58;;;;;;;0.20;0.20;;;;;;;19.10;43.31;100316.56;5081065;28;20047;-47
2023/04/22 05:24:24;;;;;;;0.20;0.20;;;;;;;19.11;43.15;100312.69;5096575;28;20395;-45
2023/04/22 05:26:50;;;;;;;0.30;0.30;;;;;;;19.12;43.31;100319.03;5096316;28;20055;-45
2023/04/22 05:29:15;;;;;;;0.20;0.20;;;;;;;19.10;43.14;100313.81;5096391;28;20044;-47
2023/04/22 05:31:41;;;;;;;0.30;0.30;;;;;;;19.11;43.28;100317.41;5074508;28;20545;-45
2023/04/22 05:34:07;;;;;;;0.20;0.20;;;;;;;19.10;43.13;100315.75;5058333;28;20143;-45
2023/04/22 05:36:33;;;;;;;0.20;0.20;;;;;;;19.11;43.48;100317.41;5089994;28;20044;-45
2023/04/22 05:38:58;;;;;;;0.20;0.20;;;;;;;19.10;43.26;100324.03;5096243;28;20415;-47
2023/04/22 05:41:25;;;;;;;0.22;0.22;;;;;;;19.11;43.44;100322.91;5096034;28;20273;-45
2023/04/22 05:43:51;;;;;;;0.20;0.20;;;;;;;19.11;43.22;100325.66;5096592;28;20502;-47
2023/04/22 05:46:16;;;;;;;0.30;0.30;;;;;;;19.10;43.10;100324.84;5096739;28;20075;-48
2023/04/22 05:48:42;;;;;;;0.20;0.20;;;;;;;19.10;43.51;100321.28;5096010;28;20104;-47
2023/04/22 05:51:08;;;;;;;0.20;0.20;;;;;;;19.10;43.43;100326.78;5095668;28;20510;-46
2023/04/22 05:53:33;;;;;;;0.20;0.20;;;;;;;19.10;43.11;100324.03;5096409;28;20047;-45
2023/04/22 05:55:59;;;;;;;0.30;0.30;;;;;;;19.10;43.55;100321.28;5095997;28;20492;-44
2023/04/22 05:58:25;;;;;;;0.20;0.20;;;;;;;19.09;43.33;100320.47;5101908;28;20067;-45
2023/04/22 06:00:51;;;;;;;0.20;0.20;;;;;;;19.10;43.30;100322.09;5116528;28;20049;-48
2023/04/22 06:03:16;;;;;;;0.30;0.30;;;;;;;19.10;43.15;100324.84;5116205;28;20051;-47
2023/04/22 06:05:43;;;;;;;0.30;0.30;;;;;;;19.09;43.35;100328.75;5109902;28;20439;-48
2023/04/22 06:08:09;;;;;;;0.30;0.30;;;;;;;19.09;43.43;100325.97;5095782;28;20059;-46
2023/04/22 06:10:34;;;;;;;0.20;0.20;;;;;;;19.09;43.29;100320.47;5095955;28;20051;-45
2023/04/22 06:13:00;;;;;;;0.40;0.40;;;;;;;19.09;43.11;100317.69;5095994;28;20445;-46
2023/04/22 06:15:27;;;;;;;0.30;0.30;;;;;;;19.09;43.38;100328.75;5095679;28;20062;-45
2023/04/22 06:17:53;;;;;;;0.20;0.20;;;;;;;19.09;43.29;100320.47;5077897;28;20365;-45
2023/04/22 06:20:19;;;;;;;0.30;0.30;;;;;;;19.10;43.23;100326.78;5096238;28;20055;-45
2023/04/22 06:22:44;;;;;;;0.22;0.22;;;;;;;19.09;43.36;100319.63;5095568;28;20185;-46
2023/04/22 06:25:10;;;;;;;0.40;0.40;;;;;;;19.09;43.42;100317.69;5093432;28;20462;-45
2023/04/22 06:27:36;;;;;;;0.30;0.30;;;;;;;19.10;43.32;100324.03;5095507;28;20051;-47
2023/04/22 06:30:03;;;;;;;0.30;0.30;;;;;;;19.09;43.42;100322.41;5097213;28;20117;-46
2023/04/22 06:32:29;;;;;;;0.30;0.30;;;;;;;19.08;43.32;100317.97;5116210;28;20105;-47
2023/04/22 06:34:54;;;;;;;0.20;0.20;;;;;;;19.09;43.58;100320.47;5116625;28;20626;-47
2023/04/22 06:37:20;;;;;;;0.20;0.20;;;;;;;19.09;43.38;100319.63;5096051;28;20088;-45
2023/04/22 06:39:46;;;;;;;0.30;0.30;;;;;;;19.09;43.42;100311.34;5095611;28;20052;-47
2023/04/22 06:42:11;;;;;;;0.20;0.20;;;;;;;19.09;43.08;100316.88;5096017;28;20403;-47
2023/04/22 06:44:37;;;;;;;0.20;0.20;;;;;;;19.09;43.41;100316.88;5095558;28;20104;-46
2023/04/22 06:47:03;;;;;;;0.20;0.20;;;;;;;19.09;43.36;100308.59;5095643;28;20054;-46
2023/04/22 06:49:29;;;;;;;0.30;0.30;;;;;;;19.08;43.24;100310.50;5095927;28;20102;-47
2023/04/22 06:51:54;;;;;;;0.20;0.20;;;;;;;19.09;43.19;100308.59;5077097;28;20059;-48
2023/04/22 06:54:20;;;;;;;0.20;0.20;;;;;;;19.09;43.17;100311.34;5095365;28;20253;-45
2023/04/22 06:56:46;;;;;;;0.30;0.30;;;;;;;19.09;43.26;100314.13;5095012;28;20051;-46
2023/04/22 06:59:11;;;;;;;0.20;0.20;;;;;;;19.09;43.36;100311.34;5077343;28;20092;-46
2023/04/22 07:01:37;;;;;;;0.30;0.30;;;;;;;19.09;43.49;100312.19;5094919;28;20319;-44
2023/04/22 07:04:03;;;;;;;0.30;0.30;;;;;;;19.09;43.28;100311.34;5093538;28;20509;-47
2023/04/22 07:06:29;;;;;;;0.40;0.40;;;;;;;19.08;43.22;100312.44;5094736;28;20100;-46
2023/04/22 07:08:55;;;;;;;0.30;0.30;;;;;;;19.08;43.13;100309.69;5095005;28;20054;-45
2023/04/22 07:11:20;;;;;;;0.20;0.20;;;;;;;19.08;43.40;100307.75;5094801;28;20051;-46
2023/04/22 07:13:46;;;;;;;0.30;0.30;;;;;;;19.08;43.32;100316.03;5094676;28;20048;-45
2023/04/22 07:16:12;;;;;;;0.20;0.20;;;;;;;19.08;43.18;100307.75;5094735;28;20051;-47
2023/04/22 07:18:38;;;;;;;0.28;0.28;;;;;;;19.08;43.38;100307.75;5094824;28;20050;-48
2023/04/22 07:21:04;;;;;;;0.30;0.30;;;;;;;19.08;43.04;100304.19;5094706;28;20039;-45
2023/04/22 07:23:30;;;;;;;0.20;0.20;;;;;;;19.09;43.29;100300.31;5076456;28;20094;-48
2023/04/22 07:25:56;;;;;;;0.20;0.20;;;;;;;19.08;43.52;100295.91;5093937;28;20087;-46
2023/04/22 07:28:21;;;;;;;0.30;0.30;;;;;;;19.07;43.42;100289.56;5094488;28;20044;-47
2023/04/22 07:30:47;;;;;;;0.20;0.20;;;;;;;19.08;43.16;100291.19;5095601;28;20220;-45
2023/04/22 07:33:13;;;;;;;0.20;0.20;;;;;;;19.08;43.18;100295.91;5115190;27;20051;-45
2023/04/22 07:35:39;;;;;;;0.30;0.30;;;;;;;19.07;43.46;100295.06;5109099;28;20039;-45
2023/04/22 07:38:04;;;;;;;0.20;0.20;;;;;;;19.08;43.60;100293.13;5094825;28;20054;-45
2023/04/22 07:40:31;;;;;;;0.30;0.30;;;;;;;19.07;43.50;100295.06;5098118;28;20079;-46
2023/04/22 07:42:57;;;;;;;0.30;0.30;;;;;;;19.08;43.13;100279.34;5098437;28;20055;-48
2023/04/22 07:45:22;;;;;;;0.20;0.20;;;;;;;19.07;43.53;100278.53;5098209;28;20802;-45
2023/04/22 07:47:48;;;;;;;0.30;0.30;;;;;;;19.07;43.18;100269.41;5098226;28;20044;-45
2023/04/22 07:50:14;;;;;;;0.30;0.30;;;;;;;19.08;43.39;100271.06;5098592;28;20051;-46
2023/04/22 07:52:40;;;;;;;0.30;0.30;;;;;;;19.07;43.19;100267.47;5098658;28;20526;-48
2023/04/22 07:55:06;;;;;;;0.20;0.20;;;;;;;19.08;43.20;100273.81;5096084;28;20453;-45
2023/04/22 07:57:37;;;;;;;0.20;0.20;;;;;;;19.07;43.06;100277.69;5098132;28;20195;-47
2023/04/22 08:00:05;;;;;;;0.35;0.35;;;;;;;19.08;43.18;100284.84;5097894;28;20518;-45
2023/04/22 08:02:30;;;;;;;0.20;0.20;;;;;;;19.08;43.60;100282.09;5079888;28;20100;-46
2023/04/22 08:04:56;;;;;;;0.30;0.30;;;;;;;19.07;43.20;100270.25;5097688;28;20048;-46
2023/04/22 08:07:22;;;;;;;0.20;0.20;;;;;;;19.07;43.48;100263.91;5097965;28;20040;-44
2023/04/22 08:09:51;;;;;;;0.20;0.20;;;;;;;19.07;43.40;100269.41;5097834;28;20492;-48
2023/04/22 08:12:17;;;;;;;0.30;0.30;;;;;;;19.08;43.60;100273.81;5080197;28;20055;-46
2023/04/22 08:14:43;;;;;;;0.20;0.20;;;;;;;19.07;43.29;100258.38;5118657;28;20457;-45
2023/04/22 08:17:08;;;;;;;0.30;0.30;;;;;;;19.06;43.23;100254.81;5099459;28;20055;-48
2023/04/22 08:19:34;;;;;;;0.20;0.20;;;;;;;19.07;43.51;100263.91;5097992;28;20488;-48
2023/04/22 08:22:00;;;;;;;0.20;0.20;;;;;;;19.07;43.35;100250.91;5098297;28;20514;-46
2023/04/22 08:24:26;;;;;;;0.20;0.20;;;;;;;19.07;43.55;100245.41;5097250;28;20050;-46
2023/04/22 08:26:51;;;;;;;0.20;0.20;;;;;;;19.07;43.22;100234.38;5097170;28;20377;-45
2023/04/22 08:29:17;;;;;;;0.30;0.30;;;;;;;19.07;43.26;100239.06;5097352;28;20385;-47
2023/04/22 08:31:43;;;;;;;0.20;0.20;;;;;;;19.06;43.11;100241.00;5096266;28;20147;-46
2023/04/22 08:34:08;;;;;;;0.60;0.60;;;;;;;19.06;43.47;100252.03;5097793;28;20059;-45
2023/04/22 08:36:34;;;;;;;0.40;0.40;;;;;;;19.06;43.12;100249.28;5097241;28;20053;-46
2023/04/22 08:39:00;;;;;;;0.20;0.20;;;;;;;19.05;43.46;100239.38;5096977;28;20051;-45
2023/04/22 08:41:25;;;;;;;0.20;0.20;;;;;;;19.07;43.51;100245.41;5098059;28;20213;-46
2023/04/22 08:43:52;;;;;;;0.20;0.20;;;;;;;19.07;43.30;100237.13;5097627;28;20048;-45
2023/04/22 08:46:19;;;;;;;0.20;0.20;;;;;;;19.06;43.42;100243.75;5078944;28;20044;-45
2023/04/22 08:48:46;;;;;;;0.20;0.20;;;;;;;19.06;43.55;100235.50;5097402;28;20140;-45
2023/04/22 08:51:15;;;;;;;0.20;0.20;;;;;;;19.06;43.47;100238.25;5096757;28;20043;-46
2023/04/22 08:53:42;;;;;;;0.20;0.20;;;;;;;19.05;43.43;100226.38;5097535;28;20063;-45
2023/04/22 08:56:08;;;;;;;0.20;0.20;;;;;;;19.07;43.55;100239.06;5096458;28;20490;-44
2023/04/22 08:58:34;;;;;;;0.20;0.20;;;;;;;19.05;43.40;100234.66;5096798;28;20634;-45
2023/04/22 09:01:01;;;;;;;0.22;0.22;;;;;;;19.06;43.19;100227.22;5096514;28;20586;-49
2023/04/22 09:03:28;;;;;;;0.28;0.28;;;;;;;19.05;43.34;100226.38;5097456;28;20437;-45
2023/04/22 09:05:54;;;;;;;0.20;0.20;;;;;;;19.06;43.16;100224.44;5096454;28;20482;-47
2023/04/22 09:08:20;;;;;;;0.20;0.20;;;;;;;19.06;43.22;100227.22;5096683;28;20075;-47
2023/04/22 09:10:45;;;;;;;0.20;0.20;;;;;;;19.07;43.53;100223.31;5096753;28;20083;-48
2023/04/22 09:13:12;;;;;;;0.20;0.20;;;;;;;19.05;43.47;100215.34;5104482;28;20047;-45
2023/04/22 09:15:38;;;;;;;0.20;0.20;;;;;;;19.06;43.46;100205.13;5093171;28;20040;-45
2023/04/22 09:18:04;;;;;;;0.20;0.20;;;;;;;19.07;43.60;100211.47;5096724;28;20053;-45
2023/04/22 09:20:30;;;;;;;0.30;0.30;;;;;;;19.05;43.52;100217.28;5096482;28;20073;-45
2023/04/22 09:22:57;;;;;;;0.20;0.20;;;;;;;19.05;43.48;100220.88;5096972;28;20039;-45
2023/04/22 09:25:25;;;;;;;0.20;0.20;;;;;;;19.05;43.17;100209.00;5078740;28;20488;-46
2023/04/22 09:27:55;;;;;;;0.30;0.30;;;;;;;19.06;43.38;100207.88;5077884;28;20108;-47
2023/04/22 09:30:25;;;;;;;0.20;0.20;;;;;;;19.06;43.38;100213.41;5078240;28;20058;-47
2023/04/22 09:32:53;;;;;;;0.20;0.20;;;;;;;19.05;43.06;100209.00;5096225;28;20404;-47
2023/04/22 09:35:25;;;;;;;0.20;0.20;;;;;;;19.05;43.17;100212.59;5078379;28;20455;-47
2023/04/22 09:37:51;;;;;;;0.30;0.30;;;;;;;19.05;43.42;100206.25;5078235;28;20039;-46
2023/04/22 09:40:17;;;;;;;0.20;0.20;;;;;;;19.04;43.50;100208.19;5096119;28;20046;-45
2023/04/22 09:42:48;;;;;;;0.20;0.20;;;;;;;19.05;43.10;100211.78;5078021;28;20503;-45
2023/04/22 09:45:32;;;;;;;0.20;0.20;;;;;;;19.06;43.21;100207.88;5078174;28;20096;-47
2023/04/22 09:48:02;;;;;;;0.22;0.22;;;;;;;19.06;43.48;100202.38;5077926;28;20092;-47
2023/04/22 09:50:28;;;;;;;0.30;0.30;;;;;;;19.04;43.49;100199.06;5096237;28;20050;-46
2023/04/22 09:52:55;;;;;;;0.20;0.20;;;;;;;19.05;43.25;100198.78;5096588;28;20048;-46
2023/04/22 09:55:23;;;;;;;0.40;0.30;;;;;;;19.06;43.23;100194.09;5096736;28;20104;-46
2023/04/22 09:57:52;;;;;;;0.20;0.20;;;;;;;19.05;43.57;100190.50;5096039;28;20043;-45
2023/04/22 10:00:18;;;;;;;0.20;0.20;;;;;;;19.04;43.09;100188.88;5094836;28;20056;-46
2023/04/22 10:02:43;;;;;;;0.40;0.40;;;;;;;19.04;43.29;100188.88;5094850;28;20051;-46
2023/04/22 10:05:11;;;;;;;0.20;0.20;;;;;;;19.05;43.46;100196.03;5096768;28;20066;-46
2023/04/22 10:07:38;;;;;;;0.20;0.20;;;;;;;19.05;43.44;100197.97;5096477;28;20476;-45
2023/04/22 10:10:07;;;;;;;0.20;0.20;;;;;;;19.05;43.42;100200.72;5096231;28;20606;-47
2023/04/22 10:12:35;;;;;;;0.20;0.20;;;;;;;19.05;43.31;100209.00;5098378;28;20054;-45
2023/04/22 10:15:03;;;;;;;0.20;0.20;;;;;;;19.05;43.19;100217.28;5116112;28;20050;-45
2023/04/22 10:17:32;;;;;;;0.20;0.20;;;;;;;19.05;43.36;100218.09;5078274;28;20047;-44
2023/04/22 10:20:02;;;;;;;0.20;0.20;;;;;;;19.04;43.29;100210.09;5078153;28;20221;-45
2023/04/22 10:22:28;;;;;;;0.20;0.20;;;;;;;19.04;43.28;100201.84;5078153;28;20044;-45
2023/04/22 10:24:56;;;;;;;0.20;0.20;;;;;;;19.04;43.30;100202.69;5077514;28;20068;-45
2023/04/22 10:27:22;;;;;;;0.20;0.20;;;;;;;19.04;43.21;100199.06;5096045;28;20827;-46
2023/04/22 10:29:48;;;;;;;0.20;0.20;;;;;;;19.04;43.52;100201.84;5095263;28;20495;-45
2023/04/22 10:35:06;;;;;;;0.20;0.20;;;;;;;19.04;43.50;100208.19;5174753;27;20127;-44
2023/04/22 10:37:32;;;;;;;0.20;0.20;;;;;;;19.04;43.22;100199.06;5120226;27;20034;-43
2023/04/22 10:40:15;;;;;;;0.20;0.20;;;;;;;19.05;43.56;100214.53;5117827;27;20042;-43
2023/04/22 10:42:46;;;;;;;0.20;0.20;;;;;;;19.04;43.28;100215.63;5117774;27;20046;-43
2023/04/22 10:45:13;;;;;;;0.30;0.30;;;;;;;19.04;43.53;100210.09;5153105;27;20077;-42
2023/04/22 10:47:40;;;;;;;0.22;0.22;;;;;;;19.04;43.42;100212.88;5117826;27;20419;-44
2023/04/22 10:50:26;;;;;;;0.20;0.20;;;;;;;19.04;43.37;100208.19;5153218;27;20046;-42
2023/04/22 10:52:59;;;;;;;0.30;0.30;;;;;;;19.04;43.46;100213.72;5137831;27;20512;-44
2023/04/22 10:55:25;;;;;;;0.40;0.40;;;;;;;19.04;43.56;100213.72;5134073;27;20440;-45
2023/04/22 10:57:52;;;;;;;0.20;0.20;;;;;;;19.04;43.58;100213.72;5153005;27;20381;-43
2023/04/22 11:03:07;;;;;;;0.20;0.20;;;;;;;19.04;43.20;100204.59;5174648;27;20131;-43
2023/04/22 11:05:34;;;;;;;0.20;0.20;;;;;;;19.04;43.37;100210.97;5151974;27;20046;-42
2023/04/22 11:08:03;;;;;;;0.20;0.20;;;;;;;19.04;43.36;100213.72;5135316;27;20487;-46
2023/04/22 11:10:30;;;;;;;0.30;0.30;;;;;;;19.05;43.17;100220.06;5134733;27;20077;-46
2023/04/22 11:12:56;;;;;;;0.20;0.20;;;;;;;19.04;43.56;100221.16;5140028;27;20038;-43
2023/04/22 11:15:22;;;;;;;0.20;0.20;;;;;;;19.04;43.32;100215.63;5166348;27;20115;-43
2023/04/22 11:17:51;;;;;;;0.20;0.20;;;;;;;19.04;43.48;100212.88;5113996;27;20043;-43
2023/04/22 11:20:16;;;;;;;;;;;;;;;19.04;43.42;100213.72;5114637;27;20039;-44
2023/04/22 11:22:45;;;;;;;0.20;0.20;;;;;;;19.03;43.42;100209.28;5113717;27;19968;-46
2023/04/22 11:25:10;;;;;;;;;;;;;;;19.04;43.33;100213.72;5097284;27;20487;-43
2023/04/22 11:27:37;;;;;;;0.20;0.20;;;;;;;19.02;43.56;100207.66;5132558;27;20366;-42